In Rescue
 
Open Full Screen Window  High Contrast Mode
Wind Gusting 00 knots
06
September 19, 2019 4:44 PM CDT
Weather Information
Wind Direction
  210 °
Wind Speed
  06 kt (7 mph)
Wind Gust
  00 kt (0 mph)
Altimeter
29.98 in
Visibility
10 SM
Temperature
27° C
81° F
Dewpoint
18° C
64° F
Humidity
58%
1hr Rain Fall
00.00 in.
24hr Rain Fall
00.00 in.
Sky Condition
Clear
VFR

METAR KPQN 192144Z AUTO 21006KT 10SM CLR 27/18 A2998 RMK AO2

FAA Disclaimer: The data displayed is for advisory purposes only and is not to be used for flight planning or operations.